createdAt,value
2023-04-17T00:00:02.558Z,25.17
2023-04-17T00:02:25.701Z,25.07
2023-04-17T00:04:48.429Z,26.20
2023-04-17T00:07:11.256Z,21.93
2023-04-17T00:09:33.120Z,24.83
2023-04-17T00:11:54.608Z,32.07
2023-04-17T00:14:16.059Z,26.53
2023-04-17T00:16:37.752Z,28.43
2023-04-17T00:18:59.254Z,25.57
2023-04-17T00:21:20.938Z,26.90
2023-04-17T00:23:42.423Z,27.40
2023-04-17T00:26:03.875Z,25.70
2023-04-17T00:28:25.353Z,26.67
2023-04-17T00:30:46.927Z,25.97
2023-04-17T00:33:08.452Z,26.10
2023-04-17T00:35:29.909Z,24.10
2023-04-17T00:37:51.565Z,23.30
2023-04-17T00:40:13.173Z,22.57
2023-04-17T00:42:34.622Z,23.10
2023-04-17T00:44:56.080Z,19.60
2023-04-17T00:47:17.868Z,17.57
2023-04-17T00:49:39.528Z,22.17
2023-04-17T00:52:01.560Z,21.43
2023-04-17T00:54:23.434Z,24.63
2023-04-17T00:56:45.702Z,22.37
2023-04-17T00:59:11.832Z,19.87
2023-04-17T01:01:33.552Z,19.50
2023-04-17T01:03:55.230Z,20.73
2023-04-17T01:06:16.971Z,17.57
2023-04-17T01:08:43.414Z,19.73
2023-04-17T01:11:04.940Z,23.47
2023-04-17T01:13:26.419Z,20.93
2023-04-17T01:15:48.324Z,24.10
2023-04-17T01:18:09.842Z,26.77
2023-04-17T01:20:31.729Z,24.03
2023-04-17T01:22:53.192Z,22.73
2023-04-17T01:25:14.637Z,19.87
2023-04-17T01:27:36.071Z,21.53
2023-04-17T01:29:57.506Z,20.83
2023-04-17T01:32:18.982Z,18.40
2023-04-17T01:34:40.476Z,15.97
2023-04-17T01:37:02.257Z,17.83
2023-04-17T01:39:23.789Z,17.63
2023-04-17T01:41:45.471Z,15.40
2023-04-17T01:44:06.938Z,17.23
2023-04-17T01:46:28.501Z,17.83
2023-04-17T01:48:50.278Z,18.17
2023-04-17T01:51:11.794Z,19.20
2023-04-17T01:53:33.916Z,18.87
2023-04-17T01:55:55.449Z,18.23
2023-04-17T01:58:16.909Z,17.90
2023-04-17T02:00:38.431Z,18.70
2023-04-17T02:02:59.974Z,21.77
2023-04-17T02:05:21.506Z,21.60
2023-04-17T02:07:42.976Z,20.23
2023-04-17T02:10:04.666Z,20.57
2023-04-17T02:12:26.114Z,24.93
2023-04-17T02:14:47.545Z,21.90
2023-04-17T02:17:08.985Z,20.60
2023-04-17T02:19:30.611Z,25.53
2023-04-17T02:21:52.092Z,21.17
2023-04-17T02:24:13.557Z,22.13
2023-04-17T02:26:36.743Z,21.27
2023-04-17T02:28:58.179Z,20.93
2023-04-17T02:31:19.693Z,18.73
2023-04-17T02:33:41.354Z,22.13
2023-04-17T02:36:06.870Z,24.60
2023-04-17T02:38:30.382Z,20.73
2023-04-17T02:40:52.087Z,24.07
2023-04-17T02:43:14.096Z,22.70
2023-04-17T02:45:35.689Z,23.57
2023-04-17T02:47:57.217Z,27.80
2023-04-17T02:50:18.715Z,21.97
2023-04-17T02:52:40.325Z,20.53
2023-04-17T02:55:01.867Z,25.57
2023-04-17T02:57:24.087Z,21.83
2023-04-17T02:59:45.579Z,21.80
2023-04-17T03:02:07.118Z,21.80
2023-04-17T03:04:28.791Z,22.23
2023-04-17T03:06:50.250Z,21.23
2023-04-17T03:09:15.536Z,20.37
2023-04-17T03:11:37.014Z,21.63
2023-04-17T03:13:58.638Z,23.20
2023-04-17T03:16:20.240Z,19.67
2023-04-17T03:18:42.068Z,21.17
2023-04-17T03:21:03.563Z,19.43
2023-04-17T03:23:25.036Z,20.90
2023-04-17T03:25:46.618Z,21.30
2023-04-17T03:28:08.067Z,18.70
2023-04-17T03:30:29.530Z,21.17
2023-04-17T03:32:51.371Z,18.70
2023-04-17T03:35:12.891Z,18.83
2023-04-17T03:37:34.343Z,21.40
2023-04-17T03:39:55.941Z,20.60
2023-04-17T03:42:17.425Z,20.47
2023-04-17T03:44:38.834Z,21.23
2023-04-17T03:47:00.471Z,18.50
2023-04-17T03:49:22.001Z,18.20
2023-04-17T03:51:43.509Z,20.27
2023-04-17T03:54:04.972Z,20.10
2023-04-17T03:56:27.197Z,20.63
2023-04-17T03:58:48.679Z,22.03
2023-04-17T04:01:14.709Z,19.13
2023-04-17T04:03:39.432Z,23.27
2023-04-17T04:06:01.036Z,20.37
2023-04-17T04:08:22.509Z,19.03
2023-04-17T04:10:46.805Z,21.53
2023-04-17T04:13:08.252Z,23.30
2023-04-17T04:15:29.824Z,21.70
2023-04-17T04:17:51.322Z,20.67
2023-04-17T04:20:12.896Z,23.93
2023-04-17T04:22:34.912Z,23.23
2023-04-17T04:24:57.582Z,24.67
2023-04-17T04:27:22.695Z,22.67
2023-04-17T04:29:45.678Z,23.50
2023-04-17T04:32:09.658Z,25.10
2023-04-17T04:34:31.504Z,25.63
2023-04-17T04:36:52.953Z,21.87
2023-04-17T04:39:17.846Z,20.17
2023-04-17T04:41:51.130Z,22.50
2023-04-17T04:44:12.805Z,23.13
2023-04-17T04:46:34.239Z,21.50
2023-04-17T04:48:55.691Z,19.80
2023-04-17T04:51:19.179Z,20.10
2023-04-17T04:53:40.684Z,19.80
2023-04-17T04:56:02.218Z,20.70
2023-04-17T04:58:23.969Z,18.80
2023-04-17T05:00:45.608Z,18.73
2023-04-17T05:03:07.846Z,22.83
2023-04-17T05:05:29.618Z,18.43
2023-04-17T05:07:53.499Z,19.50
2023-04-17T05:10:15.164Z,22.60
2023-04-17T05:12:36.710Z,22.77
2023-04-17T05:14:58.161Z,22.97
2023-04-17T05:17:19.661Z,19.97
2023-04-17T05:19:41.116Z,18.73
2023-04-17T05:22:02.554Z,16.47
2023-04-17T05:24:24.076Z,17.60
2023-04-17T05:26:45.674Z,17.90
2023-04-17T05:29:07.163Z,18.07
2023-04-17T05:31:28.708Z,14.27
2023-04-17T05:33:50.363Z,15.37
2023-04-17T05:36:11.864Z,20.77
2023-04-17T05:38:33.388Z,17.90
2023-04-17T05:40:54.883Z,16.67
2023-04-17T05:43:16.584Z,17.83
2023-04-17T05:45:38.393Z,16.23
2023-04-17T05:47:59.947Z,19.53
2023-04-17T05:50:21.445Z,17.03
2023-04-17T05:52:43.061Z,19.00
2023-04-17T05:55:04.949Z,17.10
2023-04-17T05:57:26.439Z,18.67
2023-04-17T05:59:49.290Z,14.30
2023-04-17T06:02:10.840Z,17.03
2023-04-17T06:04:32.653Z,16.93
2023-04-17T06:06:54.405Z,15.90
2023-04-17T06:09:15.959Z,22.07
2023-04-17T06:11:37.470Z,16.63
2023-04-17T06:13:58.978Z,16.37
2023-04-17T06:16:20.486Z,16.90
2023-04-17T06:18:43.013Z,18.03
2023-04-17T06:21:04.957Z,17.70
2023-04-17T06:23:26.385Z,18.53
2023-04-17T06:25:47.889Z,16.20
2023-04-17T06:28:09.462Z,17.17
2023-04-17T06:30:31.000Z,29.87
2023-04-17T06:32:52.492Z,19.30
2023-04-17T06:35:13.982Z,16.07
2023-04-17T06:37:35.812Z,18.97
2023-04-17T06:39:57.273Z,16.13
2023-04-17T06:42:18.940Z,18.10
2023-04-17T06:44:40.467Z,28.07
2023-04-17T06:47:04.857Z,21.53
2023-04-17T06:49:26.315Z,17.27
2023-04-17T06:51:47.846Z,20.13
2023-04-17T06:54:10.913Z,13.47
2023-04-17T06:56:32.376Z,13.53
2023-04-17T06:58:54.212Z,18.83
2023-04-17T07:01:15.905Z,36.00
2023-04-17T07:03:39.143Z,18.67
2023-04-17T07:06:00.727Z,13.97
2023-04-17T07:08:22.574Z,13.43
2023-04-17T07:10:44.079Z,15.97
2023-04-17T07:13:05.576Z,12.73
2023-04-17T07:15:30.547Z,15.27
2023-04-17T07:17:52.193Z,15.53
2023-04-17T07:20:13.849Z,17.93
2023-04-17T07:22:35.359Z,13.53
2023-04-17T07:24:57.037Z,15.57
2023-04-17T07:27:18.597Z,12.27
2023-04-17T07:29:40.080Z,13.67
2023-04-17T07:32:02.886Z,13.13
2023-04-17T07:34:27.131Z,12.37
2023-04-17T07:36:50.271Z,14.87
2023-04-17T07:39:12.030Z,12.67
2023-04-17T07:41:33.647Z,12.30
2023-04-17T07:43:57.154Z,12.83
2023-04-17T07:46:20.039Z,11.80
2023-04-17T07:48:41.564Z,13.37
2023-04-17T07:51:03.106Z,12.83
2023-04-17T07:53:25.658Z,13.00
2023-04-17T07:55:47.225Z,11.10
2023-04-17T07:58:11.367Z,13.17
2023-04-17T08:00:33.424Z,11.27
2023-04-17T08:02:55.204Z,11.93
2023-04-17T08:05:16.952Z,13.37
2023-04-17T08:07:38.592Z,13.17
2023-04-17T08:10:00.095Z,11.13
2023-04-17T08:12:21.614Z,44.60
2023-04-17T08:14:43.810Z,42.73
2023-04-17T08:17:07.568Z,33.10
2023-04-17T08:19:30.021Z,32.10
2023-04-17T08:21:51.764Z,24.47
2023-04-17T08:24:13.285Z,27.40
2023-04-17T08:26:35.272Z,21.93
2023-04-17T08:29:01.534Z,17.73
2023-04-17T08:31:23.070Z,14.27
2023-04-17T08:33:44.634Z,14.57
2023-04-17T08:36:09.651Z,13.13
2023-04-17T08:38:31.500Z,13.30
2023-04-17T08:40:58.027Z,11.97
2023-04-17T08:43:21.209Z,10.13
2023-04-17T08:45:54.159Z,11.20
2023-04-17T08:48:16.021Z,12.87
2023-04-17T08:50:37.732Z,10.20
2023-04-17T08:52:59.195Z,12.57
2023-04-17T08:55:23.659Z,10.43
2023-04-17T08:58:01.414Z,10.97
2023-04-17T09:00:31.458Z,11.70
2023-04-17T09:02:55.193Z,10.93
2023-04-17T09:05:21.825Z,9.60
2023-04-17T09:07:44.469Z,11.47
2023-04-17T09:10:06.371Z,9.50
2023-04-17T09:12:27.922Z,9.27
2023-04-17T09:14:49.985Z,10.33
2023-04-17T09:17:11.880Z,9.90
2023-04-17T09:19:35.207Z,12.27
2023-04-17T09:21:56.855Z,11.47
2023-04-17T09:24:32.711Z,11.00
2023-04-17T09:26:54.166Z,16.47
2023-04-17T09:29:16.592Z,13.77
2023-04-17T09:31:40.186Z,10.90
2023-04-17T09:34:11.917Z,9.80
2023-04-17T09:36:37.871Z,11.37
2023-04-17T09:39:02.175Z,9.70
2023-04-17T09:41:30.506Z,10.47
2023-04-17T09:43:54.952Z,11.57
2023-04-17T09:46:38.478Z,9.55
2023-04-17T09:49:05.370Z,9.88
2023-04-17T09:51:28.080Z,9.23
2023-04-17T09:53:49.834Z,7.95
2023-04-17T09:56:13.565Z,8.45
2023-04-17T09:58:35.087Z,9.55
2023-04-17T10:00:57.402Z,8.68
2023-04-17T10:03:19.700Z,7.80
2023-04-17T10:05:41.684Z,7.63
2023-04-17T10:08:03.258Z,8.55
2023-04-17T10:10:27.256Z,8.18
2023-04-17T10:12:50.036Z,6.60
2023-04-17T10:15:14.625Z,7.22
2023-04-17T10:17:36.352Z,7.20
2023-04-17T10:20:22.941Z,7.38
2023-04-17T10:22:45.182Z,7.60
2023-04-17T10:25:12.896Z,9.00
2023-04-17T10:27:42.951Z,6.28
2023-04-17T10:30:10.545Z,6.85
2023-04-17T10:32:34.194Z,7.72
2023-04-17T10:35:22.368Z,6.88
2023-04-17T10:37:52.724Z,6.68
2023-04-17T10:40:21.516Z,10.07
2023-04-17T10:43:11.075Z,8.25
2023-04-17T10:46:00.811Z,9.60
2023-04-17T10:48:39.251Z,14.30
2023-04-17T10:51:28.862Z,9.30
2023-04-17T10:53:50.408Z,11.45
2023-04-17T10:56:17.973Z,7.65
2023-04-17T10:58:55.395Z,7.72
2023-04-17T11:01:16.942Z,8.80
2023-04-17T11:03:39.027Z,9.30
2023-04-17T11:06:00.670Z,7.68
2023-04-17T11:08:23.596Z,8.80
2023-04-17T11:10:45.073Z,9.27
2023-04-17T11:13:07.087Z,10.95
2023-04-17T11:15:34.268Z,6.90
2023-04-17T11:17:56.997Z,7.60
2023-04-17T11:20:23.322Z,10.35
2023-04-17T11:22:45.395Z,12.73
2023-04-17T11:25:07.279Z,7.85
2023-04-17T11:27:28.719Z,7.53
2023-04-17T11:29:50.439Z,9.43
2023-04-17T11:32:12.439Z,8.05
2023-04-17T11:34:34.530Z,13.27
2023-04-17T11:36:57.971Z,8.82
2023-04-17T11:39:21.302Z,9.23
2023-04-17T11:41:44.837Z,12.65
2023-04-17T11:44:10.062Z,14.60
2023-04-17T11:46:31.568Z,12.95
2023-04-17T11:48:53.220Z,8.48
2023-04-17T11:51:18.099Z,10.20
2023-04-17T11:53:47.167Z,8.32
2023-04-17T11:56:16.496Z,7.20
2023-04-17T11:58:45.780Z,8.80
2023-04-17T12:01:07.383Z,11.80
2023-04-17T12:03:32.724Z,7.85
2023-04-17T12:05:59.775Z,9.00
2023-04-17T12:08:23.092Z,12.85
2023-04-17T12:10:45.374Z,10.23
2023-04-17T12:13:07.295Z,10.30
2023-04-17T12:15:28.813Z,14.80
2023-04-17T12:17:50.390Z,13.63
2023-04-17T12:20:11.973Z,11.38
2023-04-17T12:22:33.473Z,8.93
2023-04-17T12:24:54.922Z,9.23
2023-04-17T12:27:17.312Z,8.27
2023-04-17T12:29:44.284Z,13.00
2023-04-17T12:32:06.533Z,9.13
2023-04-17T12:34:28.149Z,8.57
2023-04-17T12:36:50.973Z,10.70
2023-04-17T12:39:13.500Z,11.73
2023-04-17T12:41:34.912Z,11.80
2023-04-17T12:44:00.089Z,12.23
2023-04-17T12:46:21.840Z,11.07
2023-04-17T12:48:43.440Z,10.52
2023-04-17T12:51:04.873Z,14.98
2023-04-17T12:53:26.441Z,8.30
2023-04-17T12:55:48.154Z,8.63
2023-04-17T12:58:11.565Z,10.10
2023-04-17T13:00:33.400Z,8.45
2023-04-17T13:02:55.028Z,8.00
2023-04-17T13:05:16.731Z,8.80
2023-04-17T13:07:38.179Z,9.27
2023-04-17T13:09:59.728Z,8.13
2023-04-17T13:12:21.260Z,8.10
2023-04-17T13:14:42.847Z,8.35
2023-04-17T13:17:04.649Z,7.55
2023-04-17T13:19:26.284Z,8.98
2023-04-17T13:21:47.818Z,7.53
2023-04-17T13:24:14.449Z,9.10
2023-04-17T13:26:37.111Z,9.68
2023-04-17T13:28:58.551Z,7.22
2023-04-17T13:31:20.002Z,9.05
2023-04-17T13:33:41.658Z,9.48
2023-04-17T13:36:03.143Z,9.35
2023-04-17T13:38:24.766Z,12.85
2023-04-17T13:40:46.201Z,9.50
2023-04-17T13:43:08.430Z,7.50
2023-04-17T13:45:29.869Z,8.40
2023-04-17T13:47:51.663Z,8.35
2023-04-17T13:50:13.268Z,7.28
2023-04-17T13:52:34.733Z,9.93
2023-04-17T13:54:56.155Z,9.30
2023-04-17T13:57:20.583Z,9.55
2023-04-17T13:59:42.100Z,12.30
2023-04-17T14:02:04.225Z,10.60
2023-04-17T14:04:26.002Z,10.30
2023-04-17T14:06:49.621Z,9.38
2023-04-17T14:09:11.752Z,9.25
2023-04-17T14:11:33.468Z,11.73
2023-04-17T14:13:55.140Z,9.32
2023-04-17T14:16:18.991Z,8.00
2023-04-17T14:18:40.612Z,13.10
2023-04-17T14:21:02.128Z,8.60
2023-04-17T14:23:23.583Z,12.23
2023-04-17T14:25:45.143Z,10.82
2023-04-17T14:28:06.606Z,11.07
2023-04-17T14:30:28.046Z,11.57
2023-04-17T14:32:49.586Z,8.30
2023-04-17T14:35:11.100Z,9.70
2023-04-17T14:37:34.034Z,8.77
2023-04-17T14:39:56.039Z,10.68
2023-04-17T14:42:17.521Z,15.35
2023-04-17T14:44:38.971Z,10.55
2023-04-17T14:47:00.543Z,15.90
2023-04-17T14:49:22.365Z,12.10
2023-04-17T14:51:43.821Z,13.68
2023-04-17T14:54:06.510Z,10.23
2023-04-17T14:56:28.003Z,9.55
2023-04-17T14:58:49.591Z,10.82
2023-04-17T15:01:11.430Z,12.40
2023-04-17T15:03:33.170Z,9.32
2023-04-17T15:05:56.739Z,7.50
2023-04-17T15:08:19.440Z,8.25
2023-04-17T15:10:50.582Z,9.85
2023-04-17T15:13:12.877Z,9.60
2023-04-17T15:15:34.397Z,9.27
2023-04-17T15:17:55.927Z,7.82
2023-04-17T15:20:17.414Z,12.43
2023-04-17T15:22:38.922Z,10.90
2023-04-17T15:25:00.404Z,11.50
2023-04-17T15:27:21.927Z,11.85
2023-04-17T15:29:45.574Z,8.65
2023-04-17T15:32:07.177Z,11.88
2023-04-17T15:34:28.689Z,12.15
2023-04-17T15:36:50.249Z,12.43
2023-04-17T15:39:12.065Z,7.57
2023-04-17T15:41:33.782Z,13.18
2023-04-17T15:43:56.308Z,11.43
2023-04-17T15:46:18.044Z,16.13
2023-04-17T15:48:39.518Z,12.30
2023-04-17T15:51:03.794Z,9.50
2023-04-17T15:53:26.176Z,9.57
2023-04-17T15:55:47.680Z,7.45
2023-04-17T15:58:09.125Z,11.27
2023-04-17T16:00:30.643Z,9.02
2023-04-17T16:02:52.310Z,7.68
2023-04-17T16:05:15.462Z,13.48
2023-04-17T16:07:37.030Z,8.85
2023-04-17T16:09:58.960Z,10.32
2023-04-17T16:12:20.478Z,8.88
2023-04-17T16:14:42.380Z,8.32
2023-04-17T16:17:04.042Z,11.25
2023-04-17T16:19:28.857Z,11.35
2023-04-17T16:21:50.302Z,8.95
2023-04-17T16:24:11.734Z,6.80
2023-04-17T16:26:33.239Z,9.88
2023-04-17T16:28:55.816Z,8.30
2023-04-17T16:31:17.592Z,8.82
2023-04-17T16:33:39.722Z,8.07
2023-04-17T16:36:01.443Z,11.73
2023-04-17T16:38:23.222Z,8.75
2023-04-17T16:40:44.741Z,9.82
2023-04-17T16:43:06.363Z,8.73
2023-04-17T16:45:27.837Z,9.65
2023-04-17T16:47:49.414Z,9.48
2023-04-17T16:50:11.735Z,9.38
2023-04-17T16:52:33.336Z,8.20
2023-04-17T16:54:54.780Z,9.15
2023-04-17T16:57:16.381Z,9.52
2023-04-17T16:59:37.832Z,13.40
2023-04-17T17:02:02.324Z,10.05
2023-04-17T17:04:24.432Z,10.15
2023-04-17T17:06:46.252Z,8.77
2023-04-17T17:09:07.833Z,8.30
2023-04-17T17:11:29.538Z,10.57
2023-04-17T17:13:51.696Z,12.30
2023-04-17T17:16:15.060Z,10.05
2023-04-17T17:18:36.542Z,9.40
2023-04-17T17:21:00.087Z,11.68
2023-04-17T17:23:21.769Z,10.35
2023-04-17T17:25:43.254Z,12.95
2023-04-17T17:28:04.740Z,13.77
2023-04-17T17:30:26.269Z,8.15
2023-04-17T17:32:47.743Z,12.85
2023-04-17T17:35:09.547Z,13.15
2023-04-17T17:37:31.061Z,8.65
2023-04-17T17:39:52.560Z,9.20
2023-04-17T17:42:14.180Z,12.50
2023-04-17T17:44:36.035Z,9.43
2023-04-17T17:46:57.527Z,7.88
2023-04-17T17:49:19.010Z,9.27
2023-04-17T17:51:41.844Z,8.87
2023-04-17T17:54:03.394Z,14.63
2023-04-17T17:56:24.864Z,8.40
2023-04-17T17:58:46.299Z,8.83
2023-04-17T18:01:08.130Z,11.90
2023-04-17T18:03:29.813Z,11.17
2023-04-17T18:05:52.695Z,13.53
2023-04-17T18:08:14.707Z,11.33
2023-04-17T18:10:36.699Z,10.17
2023-04-17T18:12:58.166Z,8.80
2023-04-17T18:15:19.611Z,9.70
2023-04-17T18:17:41.089Z,10.20
2023-04-17T18:20:02.775Z,13.33
2023-04-17T18:22:24.265Z,12.13
2023-04-17T18:24:45.709Z,8.23
2023-04-17T18:27:07.138Z,10.10
2023-04-17T18:29:29.329Z,10.73
2023-04-17T18:31:52.885Z,16.17
2023-04-17T18:34:14.872Z,8.67
2023-04-17T18:36:36.544Z,11.13
2023-04-17T18:38:57.991Z,12.40
2023-04-17T18:41:20.413Z,11.20
2023-04-17T18:43:41.860Z,10.70
2023-04-17T18:46:07.608Z,9.63
2023-04-17T18:48:29.290Z,10.70
2023-04-17T18:50:51.236Z,8.83
2023-04-17T18:53:12.749Z,11.40
2023-04-17T18:55:37.150Z,9.77
2023-04-17T18:57:58.611Z,10.97
2023-04-17T19:00:20.242Z,9.97
2023-04-17T19:02:41.931Z,11.73
2023-04-17T19:05:04.503Z,10.33
2023-04-17T19:07:26.204Z,8.87
2023-04-17T19:09:47.784Z,11.67
2023-04-17T19:12:10.076Z,9.87
2023-04-17T19:14:34.622Z,8.50
2023-04-17T19:16:56.131Z,11.43
2023-04-17T19:19:17.727Z,9.53
2023-04-17T19:21:39.182Z,8.93
2023-04-17T19:24:00.709Z,10.63
2023-04-17T19:26:22.168Z,11.27
2023-04-17T19:28:43.631Z,10.57
2023-04-17T19:31:05.247Z,8.50
2023-04-17T19:33:26.691Z,7.87
2023-04-17T19:35:48.663Z,14.07
2023-04-17T19:38:10.238Z,8.83
2023-04-17T19:40:31.750Z,10.13
2023-04-17T19:42:53.831Z,8.87
2023-04-17T19:45:15.349Z,9.17
2023-04-17T19:47:39.984Z,10.87
2023-04-17T19:50:01.642Z,9.57
2023-04-17T19:52:23.854Z,10.70
2023-04-17T19:54:46.224Z,8.97
2023-04-17T19:57:07.704Z,11.37
2023-04-17T19:59:29.310Z,10.03
2023-04-17T20:01:50.955Z,7.77
2023-04-17T20:04:12.760Z,11.43
2023-04-17T20:06:34.324Z,9.63
2023-04-17T20:08:58.375Z,10.57
2023-04-17T20:11:19.869Z,10.07
2023-04-17T20:13:41.382Z,9.97
2023-04-17T20:16:02.871Z,10.73
2023-04-17T20:18:24.984Z,7.83
2023-04-17T20:20:46.695Z,9.43
2023-04-17T20:23:08.162Z,9.10
2023-04-17T20:25:29.864Z,7.83
2023-04-17T20:27:51.298Z,10.37
2023-04-17T20:30:13.221Z,9.57
2023-04-17T20:32:34.709Z,8.83
2023-04-17T20:34:56.278Z,7.50
2023-04-17T20:37:17.777Z,7.60
2023-04-17T20:39:40.810Z,10.20
2023-04-17T20:42:02.244Z,10.27
2023-04-17T20:44:23.708Z,13.03
2023-04-17T20:46:45.693Z,17.07
2023-04-17T20:49:07.259Z,16.83
2023-04-17T20:51:29.070Z,17.63
2023-04-17T20:53:51.739Z,15.47
2023-04-17T20:56:13.218Z,15.77
2023-04-17T20:58:34.696Z,17.77
2023-04-17T21:01:01.164Z,18.73
2023-04-17T21:03:23.504Z,17.63
2023-04-17T21:05:45.265Z,13.43
2023-04-17T21:08:06.949Z,15.77
2023-04-17T21:10:28.456Z,9.47
2023-04-17T21:12:49.893Z,10.37
2023-04-17T21:15:11.561Z,9.37
2023-04-17T21:17:33.108Z,9.87
2023-04-17T21:19:56.249Z,13.73
2023-04-17T21:22:18.567Z,10.13
2023-04-17T21:24:40.107Z,9.07
2023-04-17T21:27:02.511Z,11.00
2023-04-17T21:29:28.034Z,9.10
2023-04-17T21:31:49.569Z,14.73
2023-04-17T21:34:11.228Z,14.53
2023-04-17T21:36:33.085Z,12.97
2023-04-17T21:38:54.536Z,14.77
2023-04-17T21:41:16.029Z,16.70
2023-04-17T21:43:37.494Z,14.57
2023-04-17T21:45:59.031Z,14.67
2023-04-17T21:48:20.511Z,17.63
2023-04-17T21:50:43.229Z,14.70
2023-04-17T21:53:04.727Z,13.07
2023-04-17T21:55:26.392Z,11.47
2023-04-17T21:57:47.839Z,15.80
2023-04-17T22:00:12.922Z,12.70
2023-04-17T22:02:34.455Z,10.43
2023-04-17T22:04:56.144Z,12.27
2023-04-17T22:07:18.558Z,15.10
2023-04-17T22:09:40.018Z,16.00
2023-04-17T22:12:20.619Z,13.90
2023-04-17T22:14:42.083Z,17.67
2023-04-17T22:17:03.750Z,14.67
2023-04-17T22:19:25.329Z,16.63
2023-04-17T22:21:46.792Z,14.63
2023-04-17T22:24:09.137Z,12.43
2023-04-17T22:26:31.626Z,15.37
2023-04-17T22:28:53.386Z,13.63
2023-04-17T22:31:15.631Z,11.43
2023-04-17T22:33:37.951Z,14.03
2023-04-17T22:35:59.406Z,14.87
2023-04-17T22:38:21.265Z,13.67
2023-04-17T22:40:42.726Z,13.93
2023-04-17T22:43:04.348Z,13.40
2023-04-17T22:45:25.794Z,14.43
2023-04-17T22:47:47.399Z,16.10
2023-04-17T22:50:10.422Z,18.23
2023-04-17T22:52:31.862Z,12.73
2023-04-17T22:54:53.786Z,14.67
2023-04-17T22:57:15.272Z,12.77
2023-04-17T22:59:36.762Z,14.50
2023-04-17T23:01:58.393Z,15.20
2023-04-17T23:04:22.215Z,17.37
2023-04-17T23:06:43.866Z,17.23
2023-04-17T23:09:05.354Z,18.03
2023-04-17T23:11:26.836Z,19.33
2023-04-17T23:13:48.657Z,18.90
2023-04-17T23:16:10.250Z,17.50
2023-04-17T23:18:32.024Z,18.13
2023-04-17T23:20:53.514Z,18.20
2023-04-17T23:23:15.500Z,20.97
2023-04-17T23:25:36.938Z,23.13
2023-04-17T23:27:58.399Z,20.93
2023-04-17T23:30:20.124Z,24.03
2023-04-17T23:32:43.240Z,20.30
2023-04-17T23:35:05.095Z,19.27
2023-04-17T23:37:26.623Z,22.90
2023-04-17T23:39:48.155Z,20.77
2023-04-17T23:42:09.730Z,19.93
2023-04-17T23:44:31.229Z,16.73
2023-04-17T23:46:52.771Z,17.00
2023-04-17T23:49:14.290Z,17.63
2023-04-17T23:51:35.781Z,15.93
2023-04-17T23:53:59.870Z,14.00
2023-04-17T23:56:22.660Z,17.87
2023-04-17T23:58:44.128Z,17.33
